createdAt,value
2022-09-01T00:00:16.884Z,16.63
2022-09-01T00:01:16.878Z,16.66
2022-09-01T00:02:16.922Z,16.61
2022-09-01T00:03:16.914Z,16.66
2022-09-01T00:04:16.879Z,16.63
2022-09-01T00:05:16.832Z,16.70
2022-09-01T00:06:16.820Z,16.61
2022-09-01T00:07:16.803Z,16.67
2022-09-01T00:08:18.705Z,16.63
2022-09-01T00:09:16.788Z,16.70
2022-09-01T00:10:16.795Z,16.67
2022-09-01T00:11:16.760Z,16.60
2022-09-01T00:12:16.750Z,16.73
2022-09-01T00:13:16.771Z,16.67
2022-09-01T00:14:29.649Z,16.66
2022-09-01T00:15:17.028Z,16.67
2022-09-01T00:16:16.967Z,16.56
2022-09-01T00:17:16.691Z,16.63
2022-09-01T00:18:16.796Z,16.67
2022-09-01T00:19:16.670Z,16.66
2022-09-01T00:20:20.257Z,16.58
2022-09-01T00:21:16.648Z,16.60
2022-09-01T00:22:16.651Z,16.61
2022-09-01T00:23:16.625Z,16.57
2022-09-01T00:24:16.606Z,16.58
2022-09-01T00:25:16.633Z,16.60
2022-09-01T00:26:16.583Z,16.57
2022-09-01T00:27:16.573Z,16.60
2022-09-01T00:28:16.585Z,16.64
2022-09-01T00:29:16.549Z,16.49
2022-09-01T00:30:16.563Z,16.53
2022-09-01T00:31:16.587Z,16.46
2022-09-01T00:32:16.520Z,16.43
2022-09-01T00:33:16.513Z,16.43
2022-09-01T00:34:16.516Z,16.43
2022-09-01T00:35:16.479Z,16.43
2022-09-01T00:36:16.496Z,16.45
2022-09-01T00:37:16.483Z,16.35
2022-09-01T00:38:16.492Z,16.34
2022-09-01T00:39:16.451Z,16.33
2022-09-01T00:40:16.508Z,16.31
2022-09-01T00:41:16.412Z,16.27
2022-09-01T00:42:16.424Z,16.31
2022-09-01T00:43:16.391Z,16.35
2022-09-01T00:44:16.373Z,16.43
2022-09-01T00:45:16.361Z,16.48
2022-09-01T00:46:18.290Z,16.45
2022-09-01T00:47:16.343Z,16.39
2022-09-01T00:48:16.382Z,16.38
2022-09-01T00:49:16.317Z,16.33
2022-09-01T00:50:16.302Z,16.34
2022-09-01T00:51:16.294Z,16.31
2022-09-01T00:52:16.281Z,16.34
2022-09-01T00:53:16.301Z,16.25
2022-09-01T00:54:16.254Z,16.23
2022-09-01T00:55:16.249Z,16.23
2022-09-01T00:56:16.233Z,16.21
2022-09-01T00:57:16.235Z,16.24
2022-09-01T00:58:19.390Z,16.23
2022-09-01T00:59:16.218Z,16.24
2022-09-01T01:00:16.181Z,16.14
2022-09-01T01:01:16.252Z,16.05
2022-09-01T01:02:16.181Z,16.05
2022-09-01T01:03:16.188Z,16.11
2022-09-01T01:04:16.136Z,16.21
2022-09-01T01:05:16.142Z,16.23
2022-09-01T01:06:16.116Z,16.15
2022-09-01T01:07:16.171Z,16.24
2022-09-01T01:08:16.100Z,16.21
2022-09-01T01:09:16.101Z,16.15
2022-09-01T01:10:16.066Z,16.14
2022-09-01T01:11:16.056Z,16.28
2022-09-01T01:12:16.043Z,16.27
2022-09-01T01:13:16.060Z,16.21
2022-09-01T01:14:16.026Z,16.15
2022-09-01T01:15:16.018Z,16.15
2022-09-01T01:16:16.066Z,16.15
2022-09-01T01:17:15.986Z,16.20
2022-09-01T01:18:16.969Z,16.23
2022-09-01T01:19:15.961Z,16.23
2022-09-01T01:20:15.948Z,16.27
2022-09-01T01:21:15.975Z,16.20
2022-09-01T01:22:15.936Z,16.23
2022-09-01T01:23:15.944Z,16.24
2022-09-01T01:24:15.926Z,16.14
2022-09-01T01:25:15.889Z,16.15
2022-09-01T01:26:15.880Z,16.23
2022-09-01T01:27:15.892Z,16.23
2022-09-01T01:28:15.885Z,16.24
2022-09-01T01:29:15.844Z,16.23
2022-09-01T01:30:15.829Z,16.12
2022-09-01T01:31:15.927Z,16.21
2022-09-01T01:32:15.801Z,16.07
2022-09-01T01:33:15.792Z,16.09
2022-09-01T01:34:15.780Z,16.11
2022-09-01T01:35:15.772Z,16.11
2022-09-01T01:36:15.756Z,16.21
2022-09-01T01:37:15.759Z,16.09
2022-09-01T01:38:15.734Z,16.05
2022-09-01T01:39:15.730Z,16.05
2022-09-01T01:40:15.938Z,16.07
2022-09-01T01:41:15.718Z,16.08
2022-09-01T01:42:15.686Z,16.01
2022-09-01T01:43:15.676Z,16.07
2022-09-01T01:44:15.674Z,16.09
2022-09-01T01:45:15.658Z,16.07
2022-09-01T01:46:15.736Z,15.96
2022-09-01T01:47:15.623Z,16.04
2022-09-01T01:48:15.637Z,15.94
2022-09-01T01:49:15.600Z,15.92
2022-09-01T01:50:15.588Z,15.97
2022-09-01T01:51:15.579Z,15.96
2022-09-01T01:52:15.569Z,15.93
2022-09-01T01:53:15.628Z,15.90
2022-09-01T01:54:15.541Z,15.89
2022-09-01T01:55:15.534Z,15.94
2022-09-01T01:56:15.516Z,15.94
2022-09-01T01:57:15.502Z,15.92
2022-09-01T01:58:15.601Z,15.94
2022-09-01T01:59:15.518Z,15.84
2022-09-01T02:00:15.495Z,15.87
2022-09-01T02:01:15.482Z,15.87
2022-09-01T02:02:15.614Z,15.84
2022-09-01T02:03:15.432Z,15.89
2022-09-01T02:04:15.427Z,15.87
2022-09-01T02:05:15.432Z,15.94
2022-09-01T02:06:15.439Z,15.86
2022-09-01T02:07:15.382Z,15.86
2022-09-01T02:08:15.372Z,15.76
2022-09-01T02:09:15.358Z,15.84
2022-09-01T02:10:15.358Z,15.83
2022-09-01T02:11:15.365Z,15.86
2022-09-01T02:12:15.900Z,15.89
2022-09-01T02:13:15.308Z,15.87
2022-09-01T02:14:15.314Z,15.89
2022-09-01T02:15:15.299Z,15.84
2022-09-01T02:16:15.407Z,15.82
2022-09-01T02:17:15.268Z,15.86
2022-09-01T02:18:15.262Z,15.83
2022-09-01T02:19:15.242Z,15.84
2022-09-01T02:20:15.239Z,15.82
2022-09-01T02:21:18.373Z,15.80
2022-09-01T02:22:15.234Z,15.80
2022-09-01T02:23:15.190Z,15.78
2022-09-01T02:24:15.185Z,15.76
2022-09-01T02:25:15.165Z,15.69
2022-09-01T02:26:16.914Z,15.72
2022-09-01T02:27:15.145Z,15.64
2022-09-01T02:28:15.135Z,15.59
2022-09-01T02:29:15.118Z,15.59
2022-09-01T02:30:15.109Z,15.62
2022-09-01T02:31:15.168Z,15.57
2022-09-01T02:32:15.254Z,15.65
2022-09-01T02:33:15.079Z,15.65
2022-09-01T02:34:15.057Z,15.62
2022-09-01T02:35:15.051Z,15.62
2022-09-01T02:36:15.041Z,15.59
2022-09-01T02:37:15.020Z,15.62
2022-09-01T02:38:15.049Z,15.60
2022-09-01T02:39:15.001Z,15.62
2022-09-01T02:40:15.013Z,15.62
2022-09-01T02:41:15.025Z,15.59
2022-09-01T02:42:14.959Z,15.67
2022-09-01T02:43:14.952Z,15.72
2022-09-01T02:44:14.966Z,15.64
2022-09-01T02:45:14.925Z,15.57
2022-09-01T02:46:15.042Z,15.65
2022-09-01T02:47:14.943Z,15.59
2022-09-01T02:48:14.891Z,15.67
2022-09-01T02:49:14.876Z,15.60
2022-09-01T02:50:14.889Z,15.64
2022-09-01T02:51:14.931Z,15.60
2022-09-01T02:52:14.841Z,15.57
2022-09-01T02:53:14.837Z,15.47
2022-09-01T02:54:14.814Z,15.54
2022-09-01T02:55:14.805Z,15.47
2022-09-01T02:56:14.787Z,15.54
2022-09-01T02:57:14.802Z,15.57
2022-09-01T02:58:14.766Z,15.49
2022-09-01T02:59:14.770Z,15.62
2022-09-01T03:00:14.783Z,15.54
2022-09-01T03:01:14.849Z,15.57
2022-09-01T03:02:14.722Z,15.62
2022-09-01T03:03:14.732Z,15.54
2022-09-01T03:04:14.696Z,15.56
2022-09-01T03:05:14.680Z,15.51
2022-09-01T03:06:14.688Z,15.57
2022-09-01T03:07:14.706Z,15.62
2022-09-01T03:08:14.642Z,15.65
2022-09-01T03:09:14.633Z,15.59
2022-09-01T03:10:14.616Z,15.59
2022-09-01T03:11:14.607Z,15.50
2022-09-01T03:12:14.592Z,15.54
2022-09-01T03:13:14.613Z,15.53
2022-09-01T03:14:14.574Z,15.50
2022-09-01T03:15:14.559Z,15.49
2022-09-01T03:16:14.664Z,15.54
2022-09-01T03:17:14.535Z,15.53
2022-09-01T03:18:14.692Z,15.53
2022-09-01T03:19:14.507Z,15.53
2022-09-01T03:20:14.500Z,15.54
2022-09-01T03:21:14.483Z,15.49
2022-09-01T03:22:14.470Z,15.54
2022-09-01T03:23:14.458Z,15.54
2022-09-01T03:24:14.537Z,15.50
2022-09-01T03:25:14.434Z,15.47
2022-09-01T03:26:14.449Z,15.36
2022-09-01T03:27:14.415Z,15.25
2022-09-01T03:28:14.396Z,15.11
2022-09-01T03:29:14.398Z,14.88
2022-09-01T03:30:14.395Z,14.88
2022-09-01T03:31:14.467Z,14.75
2022-09-01T03:32:14.469Z,14.81
2022-09-01T03:33:14.339Z,14.91
2022-09-01T03:34:14.323Z,14.91
2022-09-01T03:35:14.311Z,14.92
2022-09-01T03:36:14.881Z,15.02
2022-09-01T03:37:14.349Z,15.06
2022-09-01T03:38:14.270Z,15.13
2022-09-01T03:39:16.742Z,15.21
2022-09-01T03:40:14.307Z,15.09
2022-09-01T03:41:14.241Z,15.19
2022-09-01T03:42:14.225Z,15.21
2022-09-01T03:43:14.233Z,15.28
2022-09-01T03:44:14.195Z,15.25
2022-09-01T03:45:14.183Z,15.28
2022-09-01T03:46:14.212Z,15.27
2022-09-01T03:47:14.164Z,15.27
2022-09-01T03:48:14.148Z,15.28
2022-09-01T03:49:14.140Z,15.23
2022-09-01T03:50:14.119Z,15.20
2022-09-01T03:51:14.113Z,15.14
2022-09-01T03:52:14.121Z,15.20
2022-09-01T03:53:14.086Z,15.14
2022-09-01T03:54:14.082Z,15.17
2022-09-01T03:55:14.061Z,15.14
2022-09-01T03:56:14.076Z,15.14
2022-09-01T03:57:14.436Z,15.17
2022-09-01T03:58:14.027Z,15.02
2022-09-01T03:59:14.023Z,14.77
2022-09-01T04:00:13.996Z,14.73
2022-09-01T04:01:14.099Z,14.52
2022-09-01T04:02:14.044Z,14.47
2022-09-01T04:03:13.975Z,14.22
2022-09-01T04:04:14.015Z,14.03
2022-09-01T04:05:13.952Z,14.00
2022-09-01T04:06:13.947Z,13.88
2022-09-01T04:07:15.522Z,13.70
2022-09-01T04:08:13.895Z,13.55
2022-09-01T04:09:13.890Z,13.42
2022-09-01T04:10:13.872Z,13.38
2022-09-01T04:11:13.861Z,13.30
2022-09-01T04:12:13.870Z,13.20
2022-09-01T04:13:13.847Z,13.08
2022-09-01T04:14:13.824Z,13.08
2022-09-01T04:15:13.811Z,13.26
2022-09-01T04:16:13.824Z,13.32
2022-09-01T04:17:13.812Z,13.49
2022-09-01T04:18:13.773Z,13.52
2022-09-01T04:19:13.759Z,13.57
2022-09-01T04:20:13.749Z,13.57
2022-09-01T04:21:13.737Z,13.46
2022-09-01T04:22:13.750Z,13.54
2022-09-01T04:23:13.718Z,13.54
2022-09-01T04:24:13.698Z,13.54
2022-09-01T04:25:13.727Z,13.41
2022-09-01T04:26:13.667Z,13.46
2022-09-01T04:27:13.700Z,13.36
2022-09-01T04:28:13.646Z,13.44
2022-09-01T04:29:13.634Z,13.38
2022-09-01T04:30:13.617Z,13.29
2022-09-01T04:31:13.649Z,13.14
2022-09-01T04:32:13.609Z,13.15
2022-09-01T04:33:13.606Z,13.12
2022-09-01T04:34:13.571Z,13.03
2022-09-01T04:35:13.555Z,12.96
2022-09-01T04:36:13.541Z,12.96
2022-09-01T04:37:13.555Z,12.96
2022-09-01T04:38:13.545Z,12.96
2022-09-01T04:39:13.503Z,13.00
2022-09-01T04:40:13.547Z,12.97
2022-09-01T04:41:13.480Z,13.00
2022-09-01T04:42:13.492Z,12.96
2022-09-01T04:43:13.485Z,13.03
2022-09-01T04:44:13.437Z,12.96
2022-09-01T04:45:16.291Z,12.96
2022-09-01T04:46:13.471Z,12.95
2022-09-01T04:47:13.400Z,12.82
2022-09-01T04:48:13.390Z,12.82
2022-09-01T04:49:13.497Z,12.68
2022-09-01T04:50:13.366Z,12.71
2022-09-01T04:51:13.350Z,12.72
2022-09-01T04:52:13.339Z,12.75
2022-09-01T04:53:13.330Z,12.70
2022-09-01T04:54:13.307Z,12.64
2022-09-01T04:55:13.300Z,12.72
2022-09-01T04:56:13.297Z,12.53
2022-09-01T04:57:13.271Z,12.54
2022-09-01T04:58:13.256Z,12.60
2022-09-01T04:59:13.241Z,12.52
2022-09-01T05:00:13.234Z,12.59
2022-09-01T05:01:13.256Z,12.56
2022-09-01T05:02:13.267Z,12.52
2022-09-01T05:03:13.196Z,12.62
2022-09-01T05:04:13.207Z,12.57
2022-09-01T05:05:13.166Z,12.68
2022-09-01T05:06:13.150Z,12.70
2022-09-01T05:07:13.140Z,12.77
2022-09-01T05:08:13.122Z,12.72
2022-09-01T05:09:13.143Z,12.85
2022-09-01T05:10:13.122Z,12.96
2022-09-01T05:11:13.088Z,12.92
2022-09-01T05:12:15.830Z,12.97
2022-09-01T05:13:13.061Z,13.03
2022-09-01T05:14:13.109Z,12.92
2022-09-01T05:15:13.034Z,12.77
2022-09-01T05:16:13.417Z,12.86
2022-09-01T05:17:13.004Z,12.87
2022-09-01T05:18:13.021Z,12.93
2022-09-01T05:19:12.980Z,12.97
2022-09-01T05:20:12.990Z,13.25
2022-09-01T05:21:12.956Z,13.36
2022-09-01T05:22:12.949Z,13.49
2022-09-01T05:23:12.925Z,13.64
2022-09-01T05:24:12.913Z,13.82
2022-09-01T05:25:12.929Z,13.89
2022-09-01T05:26:12.913Z,14.09
2022-09-01T05:27:12.879Z,14.06
2022-09-01T05:28:12.936Z,14.10
2022-09-01T05:29:12.846Z,14.14
2022-09-01T05:30:12.885Z,14.22
2022-09-01T05:31:12.862Z,14.29
2022-09-01T05:32:12.807Z,14.17
2022-09-01T05:33:12.794Z,14.06
2022-09-01T05:34:13.848Z,14.06
2022-09-01T05:35:12.771Z,14.12
2022-09-01T05:36:12.801Z,14.06
2022-09-01T05:37:12.739Z,13.87
2022-09-01T05:38:12.811Z,13.79
2022-09-01T05:39:12.758Z,13.57
2022-09-01T05:40:12.733Z,13.60
2022-09-01T05:41:12.689Z,13.52
2022-09-01T05:42:12.709Z,13.57
2022-09-01T05:43:12.667Z,13.52
2022-09-01T05:44:12.645Z,13.59
2022-09-01T05:45:12.635Z,13.45
2022-09-01T05:46:12.656Z,13.54
2022-09-01T05:47:14.844Z,13.55
2022-09-01T05:48:12.643Z,13.44
2022-09-01T05:49:12.589Z,13.32
2022-09-01T05:50:14.707Z,13.41
2022-09-01T05:51:33.496Z,13.33
2022-09-01T05:52:12.591Z,13.36
2022-09-01T05:53:12.943Z,13.45
2022-09-01T05:54:12.635Z,13.38
2022-09-01T05:55:12.520Z,13.36
2022-09-01T05:56:12.491Z,13.32
2022-09-01T05:57:33.301Z,13.42
2022-09-01T05:58:12.534Z,13.30
2022-09-01T05:59:27.741Z,13.29
2022-09-01T06:00:12.464Z,13.20
2022-09-01T06:01:12.428Z,13.28
2022-09-01T06:02:12.614Z,13.29
2022-09-01T06:03:12.637Z,13.22
2022-09-01T06:04:12.452Z,13.29
2022-09-01T06:05:12.372Z,13.38
2022-09-01T06:06:12.368Z,13.30
2022-09-01T06:07:15.701Z,13.28
2022-09-01T06:08:12.338Z,13.32
2022-09-01T06:09:12.326Z,13.39
2022-09-01T06:10:12.354Z,13.36
2022-09-01T06:11:12.299Z,13.15
2022-09-01T06:12:12.289Z,13.30
2022-09-01T06:13:12.297Z,13.39
2022-09-01T06:14:12.269Z,13.48
2022-09-01T06:15:12.302Z,13.41
2022-09-01T06:16:12.256Z,13.45
2022-09-01T06:17:12.236Z,13.42
2022-09-01T06:18:12.214Z,13.59
2022-09-01T06:19:12.203Z,13.63
2022-09-01T06:20:12.208Z,13.73
2022-09-01T06:21:12.167Z,13.75
2022-09-01T06:22:12.157Z,13.84
2022-09-01T06:23:12.162Z,13.95
2022-09-01T06:24:12.130Z,14.02
2022-09-01T06:25:12.141Z,14.04
2022-09-01T06:26:12.109Z,14.07
2022-09-01T06:27:12.092Z,14.12
2022-09-01T06:28:12.087Z,14.20
2022-09-01T06:29:12.063Z,14.12
2022-09-01T06:30:12.124Z,14.18
2022-09-01T06:31:12.046Z,14.28
2022-09-01T06:32:12.034Z,14.35
2022-09-01T06:33:12.024Z,14.25
2022-09-01T06:34:12.006Z,14.37
2022-09-01T06:35:11.985Z,14.52
2022-09-01T06:36:12.009Z,14.57
2022-09-01T06:37:11.963Z,14.65
2022-09-01T06:38:11.955Z,14.61
2022-09-01T06:39:11.940Z,14.55
2022-09-01T06:40:11.944Z,14.46
2022-09-01T06:41:12.091Z,14.47
2022-09-01T06:42:11.900Z,14.62
2022-09-01T06:43:11.892Z,14.57
2022-09-01T06:44:14.594Z,14.60
2022-09-01T06:45:11.859Z,14.57
2022-09-01T06:46:11.917Z,14.60
2022-09-01T06:47:11.838Z,14.73
2022-09-01T06:48:11.827Z,14.78
2022-09-01T06:49:11.815Z,14.84
2022-09-01T06:50:12.105Z,14.91
2022-09-01T06:51:17.176Z,15.01
2022-09-01T06:52:11.827Z,15.09
2022-09-01T06:54:13.994Z,15.10
2022-09-01T06:55:11.748Z,15.20
2022-09-01T06:56:11.758Z,15.27
2022-09-01T06:58:14.059Z,15.36
2022-09-01T06:59:11.685Z,15.50
2022-09-01T07:00:11.677Z,15.57
2022-09-01T07:01:11.691Z,15.65
2022-09-01T07:02:17.219Z,15.62
2022-09-01T07:03:11.647Z,15.71
2022-09-01T07:04:13.037Z,15.74
2022-09-01T07:05:59.784Z,15.84
2022-09-01T07:08:11.583Z,15.74
2022-09-01T07:09:32.159Z,15.75
2022-09-01T07:10:21.331Z,15.72
2022-09-01T07:12:27.584Z,15.82
2022-09-01T07:13:11.707Z,15.83
2022-09-01T07:14:18.717Z,15.80
2022-09-01T07:17:26.891Z,15.84
2022-09-01T07:18:11.474Z,15.82
2022-09-01T07:19:11.446Z,15.80
2022-09-01T07:20:27.277Z,15.94
2022-09-01T07:21:39.499Z,16.02
2022-09-01T07:22:35.277Z,15.92
2022-09-01T07:23:11.396Z,15.94
2022-09-01T07:24:11.682Z,15.97
2022-09-01T07:25:11.505Z,16.00
2022-09-01T07:26:11.364Z,15.92
2022-09-01T07:27:11.350Z,15.96
2022-09-01T07:28:11.583Z,16.04
2022-09-01T07:29:11.326Z,16.04
2022-09-01T07:30:11.316Z,16.04
2022-09-01T07:34:40.640Z,15.97
2022-09-01T07:35:11.889Z,16.01
2022-09-01T07:36:27.025Z,15.97
2022-09-01T07:38:46.813Z,16.08
2022-09-01T07:41:44.231Z,15.83
2022-09-01T07:43:11.191Z,16.28
2022-09-01T07:44:11.153Z,16.20
2022-09-01T07:45:27.287Z,16.27
2022-09-01T07:48:11.513Z,16.38
2022-09-01T07:50:25.055Z,16.49
2022-09-01T07:52:11.060Z,16.52
2022-09-01T07:53:11.049Z,16.63
2022-09-01T07:54:11.057Z,16.56
2022-09-01T07:55:11.049Z,16.58
2022-09-01T07:56:11.013Z,16.66
2022-09-01T07:57:11.001Z,16.64
2022-09-01T07:58:10.990Z,16.70
2022-09-01T07:59:15.191Z,16.75
2022-09-01T08:00:10.971Z,16.82
2022-09-01T08:01:10.960Z,16.83
2022-09-01T08:02:11.004Z,16.82
2022-09-01T08:03:11.021Z,16.82
2022-09-01T08:04:10.923Z,16.89
2022-09-01T08:05:10.912Z,16.86
2022-09-01T08:06:10.904Z,16.97
2022-09-01T08:07:15.365Z,16.94
2022-09-01T08:08:29.233Z,16.98
2022-09-01T08:09:11.637Z,17.00
2022-09-01T08:10:10.900Z,17.01
2022-09-01T08:11:10.900Z,17.11
2022-09-01T08:12:10.837Z,17.06
2022-09-01T08:13:15.424Z,17.01
2022-09-01T08:14:10.813Z,17.00
2022-09-01T08:15:37.984Z,17.08
2022-09-01T08:16:18.449Z,17.11
2022-09-01T08:17:34.209Z,17.11
2022-09-01T08:18:10.917Z,17.18
2022-09-01T08:19:16.396Z,17.08
2022-09-01T08:20:14.052Z,17.18
2022-09-01T08:21:10.736Z,17.11
2022-09-01T08:22:10.740Z,16.97
2022-09-01T08:23:10.741Z,17.12
2022-09-01T08:24:10.704Z,17.15
2022-09-01T08:25:10.692Z,17.15
2022-09-01T08:26:10.691Z,17.14
2022-09-01T08:27:10.676Z,17.08
2022-09-01T08:28:10.691Z,17.18
2022-09-01T08:29:10.667Z,17.18
2022-09-01T08:30:10.645Z,17.18
2022-09-01T08:31:11.435Z,17.25
2022-09-01T08:32:10.620Z,17.22
2022-09-01T08:33:10.928Z,17.23
2022-09-01T08:34:10.631Z,17.34
2022-09-01T08:35:10.625Z,17.33
2022-09-01T08:36:10.582Z,17.43
2022-09-01T08:37:10.584Z,17.40
2022-09-01T08:38:10.561Z,17.51
2022-09-01T08:39:10.547Z,17.58
2022-09-01T08:40:10.605Z,17.58
2022-09-01T08:41:10.525Z,17.78
2022-09-01T08:42:10.518Z,17.75
2022-09-01T08:43:15.139Z,17.92
2022-09-01T08:44:10.529Z,17.79
2022-09-01T08:45:10.520Z,17.95
2022-09-01T08:46:10.559Z,18.03
2022-09-01T08:47:13.707Z,18.00
2022-09-01T08:49:24.738Z,18.05
2022-09-01T08:50:10.467Z,18.12
2022-09-01T08:51:15.098Z,18.17
2022-09-01T08:52:10.501Z,18.12
2022-09-01T08:53:10.418Z,18.23
2022-09-01T08:54:10.426Z,18.23
2022-09-01T08:55:10.449Z,18.30
2022-09-01T08:56:10.390Z,18.21
2022-09-01T08:57:10.384Z,18.18
2022-09-01T08:58:10.383Z,18.17
2022-09-01T08:59:10.371Z,18.11
2022-09-01T09:00:10.394Z,18.20
2022-09-01T09:01:10.380Z,18.18
2022-09-01T09:02:10.344Z,18.23
2022-09-01T09:03:10.384Z,18.25
2022-09-01T09:04:10.323Z,18.35
2022-09-01T09:05:17.520Z,18.44
2022-09-01T09:06:10.308Z,18.54
2022-09-01T09:07:10.322Z,18.48
2022-09-01T09:08:10.295Z,18.50
2022-09-01T09:09:10.348Z,18.67
2022-09-01T09:10:10.277Z,18.66
2022-09-01T09:11:10.265Z,18.69
2022-09-01T09:12:10.285Z,18.72
2022-09-01T09:13:10.242Z,18.76
2022-09-01T09:14:10.250Z,18.81
2022-09-01T09:15:10.251Z,18.90
2022-09-01T09:16:10.301Z,19.04
2022-09-01T09:17:10.205Z,19.00
2022-09-01T09:18:20.283Z,18.99
2022-09-01T09:19:10.463Z,19.14
2022-09-01T09:20:10.206Z,19.13
2022-09-01T09:21:10.171Z,19.22
2022-09-01T09:22:10.446Z,19.11
2022-09-01T09:23:10.576Z,19.13
2022-09-01T09:24:10.173Z,19.21
2022-09-01T09:25:10.170Z,19.25
2022-09-01T09:26:10.149Z,19.21
2022-09-01T09:27:11.193Z,19.21
2022-09-01T09:28:10.115Z,19.31
2022-09-01T09:29:10.095Z,19.28
2022-09-01T09:30:11.838Z,19.28
2022-09-01T09:31:10.135Z,19.31
2022-09-01T09:32:35.202Z,19.21
2022-09-01T09:33:44.223Z,19.32
2022-09-01T09:34:10.063Z,19.37
2022-09-01T09:35:10.099Z,19.36
2022-09-01T09:36:10.083Z,19.41
2022-09-01T09:37:10.021Z,19.41
2022-09-01T09:38:10.022Z,19.37
2022-09-01T09:39:10.006Z,19.37
2022-09-01T09:40:10.426Z,19.26
2022-09-01T09:41:17.349Z,19.25
2022-09-01T09:42:10.162Z,19.36
2022-09-01T09:43:09.962Z,19.23
2022-09-01T09:44:11.483Z,19.33
2022-09-01T09:45:09.953Z,19.28
2022-09-01T09:46:23.365Z,19.39
2022-09-01T09:47:27.270Z,19.41
2022-09-01T09:48:10.882Z,19.46
2022-09-01T09:49:09.923Z,19.43
2022-09-01T09:50:09.896Z,19.44
2022-09-01T09:51:09.895Z,19.48
2022-09-01T09:52:10.051Z,19.37
2022-09-01T09:53:09.891Z,19.43
2022-09-01T09:54:09.865Z,19.47
2022-09-01T09:55:09.895Z,19.43
2022-09-01T09:56:09.840Z,19.58
2022-09-01T09:57:09.826Z,19.59
2022-09-01T09:58:09.854Z,19.56
2022-09-01T09:59:09.813Z,19.61
2022-09-01T10:00:11.261Z,19.54
2022-09-01T10:01:09.853Z,19.62
2022-09-01T10:02:09.781Z,19.63
2022-09-01T10:03:19.511Z,19.63
2022-09-01T10:04:09.836Z,19.69
2022-09-01T10:05:09.746Z,19.65
2022-09-01T10:06:09.750Z,19.65
2022-09-01T10:07:09.742Z,19.69
2022-09-01T10:08:09.776Z,19.62
2022-09-01T10:09:09.708Z,19.76
2022-09-01T10:10:09.702Z,19.74
2022-09-01T10:11:09.689Z,19.71
2022-09-01T10:12:09.678Z,19.77
2022-09-01T10:13:09.670Z,19.80
2022-09-01T10:14:09.716Z,19.78
2022-09-01T10:15:13.909Z,19.84
2022-09-01T10:16:10.531Z,19.84
2022-09-01T10:17:09.685Z,19.87
2022-09-01T10:18:37.554Z,19.91
2022-09-01T10:19:12.760Z,19.95
2022-09-01T10:20:11.554Z,20.06
2022-09-01T10:21:09.612Z,20.03
2022-09-01T10:22:09.580Z,20.02
2022-09-01T10:23:15.396Z,19.99
2022-09-01T10:24:17.695Z,20.08
2022-09-01T10:25:10.375Z,19.92
2022-09-01T10:26:09.774Z,20.03
2022-09-01T10:27:14.243Z,20.10
2022-09-01T10:28:09.531Z,20.03
2022-09-01T10:29:11.334Z,20.16
2022-09-01T10:30:13.651Z,20.10
2022-09-01T10:31:09.582Z,20.29
2022-09-01T10:32:31.472Z,20.20
2022-09-01T10:33:19.289Z,20.26
2022-09-01T10:34:09.466Z,20.24
2022-09-01T10:35:09.459Z,20.29
2022-09-01T10:36:09.450Z,20.18
2022-09-01T10:37:11.187Z,20.26
2022-09-01T10:38:19.155Z,20.14
2022-09-01T10:39:09.428Z,20.20
2022-09-01T10:40:09.518Z,20.14
2022-09-01T10:41:14.200Z,20.14
2022-09-01T10:42:09.392Z,20.16
2022-09-01T10:43:12.444Z,20.17
2022-09-01T10:44:09.376Z,20.23
2022-09-01T10:45:09.364Z,20.26
2022-09-01T10:46:09.859Z,20.21
2022-09-01T10:47:13.603Z,20.17
2022-09-01T10:48:13.240Z,20.17
2022-09-01T10:49:09.552Z,20.29
2022-09-01T10:50:09.942Z,20.24
2022-09-01T10:51:09.304Z,20.33
2022-09-01T10:52:13.255Z,20.31
2022-09-01T10:53:09.327Z,20.38
2022-09-01T10:54:09.292Z,20.43
2022-09-01T10:55:09.270Z,20.47
2022-09-01T10:56:23.659Z,20.58
2022-09-01T10:57:12.021Z,20.57
2022-09-01T10:59:29.779Z,20.58
2022-09-01T11:00:34.823Z,20.47
2022-09-01T11:01:15.467Z,20.36
2022-09-01T11:04:09.287Z,20.57
2022-09-01T11:05:09.276Z,20.72
2022-09-01T11:06:13.252Z,20.69
2022-09-01T11:07:12.492Z,20.82
2022-09-01T11:08:16.208Z,20.84
2022-09-01T11:09:09.138Z,20.88
2022-09-01T11:10:11.838Z,20.98
2022-09-01T11:11:09.175Z,20.94
2022-09-01T11:12:09.110Z,20.92
2022-09-01T11:13:09.102Z,21.03
2022-09-01T11:14:09.097Z,21.09
2022-09-01T11:15:09.086Z,21.10
2022-09-01T11:16:10.141Z,21.09
2022-09-01T11:17:09.138Z,21.12
2022-09-01T11:18:09.095Z,21.04
2022-09-01T11:19:14.003Z,20.94
2022-09-01T11:20:09.041Z,20.97
2022-09-01T11:21:09.033Z,20.92
2022-09-01T11:22:09.180Z,20.84
2022-09-01T11:23:09.019Z,20.82
2022-09-01T11:24:09.014Z,20.79
2022-09-01T11:25:11.878Z,20.79
2022-09-01T11:26:24.209Z,20.85
2022-09-01T11:27:08.999Z,20.84
2022-09-01T11:28:09.016Z,20.89
2022-09-01T11:29:08.962Z,20.88
2022-09-01T11:30:08.960Z,20.92
2022-09-01T11:31:09.087Z,20.92
2022-09-01T11:32:09.036Z,20.99
2022-09-01T11:33:08.929Z,21.01
2022-09-01T11:34:08.954Z,21.16
2022-09-01T11:35:08.922Z,21.19
2022-09-01T11:36:08.898Z,21.16
2022-09-01T11:37:08.903Z,21.21
2022-09-01T11:38:08.884Z,21.28
2022-09-01T11:39:08.899Z,21.34
2022-09-01T11:40:08.921Z,21.34
2022-09-01T11:41:08.884Z,21.32
2022-09-01T11:42:08.850Z,21.43
2022-09-01T11:43:12.589Z,21.53
2022-09-01T11:44:08.855Z,21.64
2022-09-01T11:45:08.853Z,21.62
2022-09-01T11:46:08.836Z,21.72
2022-09-01T11:47:14.040Z,21.69
2022-09-01T11:48:08.793Z,21.67
2022-09-01T11:49:08.788Z,21.69
2022-09-01T11:50:08.823Z,21.75
2022-09-01T11:51:08.769Z,21.79
2022-09-01T11:52:08.756Z,21.71
2022-09-01T11:53:08.754Z,21.71
2022-09-01T11:54:08.741Z,21.72
2022-09-01T11:55:08.765Z,21.62
2022-09-01T11:56:08.884Z,21.62
2022-09-01T11:57:08.719Z,21.58
2022-09-01T11:58:08.713Z,21.52
2022-09-01T11:59:08.704Z,21.61
2022-09-01T12:00:08.702Z,21.62
2022-09-01T12:01:08.683Z,21.53
2022-09-01T12:02:08.852Z,21.50
2022-09-01T12:03:08.831Z,21.61
2022-09-01T12:04:08.766Z,21.59
2022-09-01T12:05:08.645Z,21.42
2022-09-01T12:06:08.666Z,21.35
2022-09-01T12:07:10.982Z,21.43
2022-09-01T12:08:08.629Z,21.32
2022-09-01T12:09:08.615Z,21.47
2022-09-01T12:10:08.613Z,21.40
2022-09-01T12:11:08.597Z,21.25
2022-09-01T12:12:08.586Z,21.35
2022-09-01T12:13:08.611Z,21.44
2022-09-01T12:14:11.395Z,21.42
2022-09-01T12:15:08.560Z,21.40
2022-09-01T12:16:20.995Z,21.40
2022-09-01T12:17:08.582Z,21.44
2022-09-01T12:18:08.561Z,21.38
2022-09-01T12:19:08.581Z,21.32
2022-09-01T12:20:08.517Z,21.37
2022-09-01T12:21:08.517Z,21.46
2022-09-01T12:22:08.502Z,21.49
2022-09-01T12:23:08.525Z,21.61
2022-09-01T12:24:08.486Z,21.65
2022-09-01T12:25:08.474Z,21.64
2022-09-01T12:26:08.467Z,21.74
2022-09-01T12:27:08.461Z,21.79
2022-09-01T12:28:08.479Z,21.82
2022-09-01T12:29:08.457Z,21.88
2022-09-01T12:30:08.435Z,21.83
2022-09-01T12:31:08.430Z,21.88
2022-09-01T12:32:08.480Z,21.86
2022-09-01T12:33:24.214Z,21.90
2022-09-01T12:34:08.426Z,21.77
2022-09-01T12:35:11.464Z,21.69
2022-09-01T12:36:08.417Z,21.54
2022-09-01T12:37:08.374Z,21.49
2022-09-01T12:38:09.641Z,21.46
2022-09-01T12:39:08.385Z,21.32
2022-09-01T12:40:08.381Z,21.34
2022-09-01T12:41:08.477Z,21.28
2022-09-01T12:42:08.330Z,21.21
2022-09-01T12:43:08.328Z,21.17
2022-09-01T12:44:08.353Z,21.19
2022-09-01T12:45:09.005Z,21.21
2022-09-01T12:46:08.511Z,21.16
2022-09-01T12:47:08.295Z,21.10
2022-09-01T12:48:08.283Z,21.06
2022-09-01T12:49:08.312Z,21.09
2022-09-01T12:50:08.347Z,21.13
2022-09-01T12:51:09.406Z,21.14
2022-09-01T12:52:08.308Z,21.21
2022-09-01T12:53:08.426Z,21.16
2022-09-01T12:54:09.340Z,21.21
2022-09-01T12:55:08.233Z,21.24
2022-09-01T12:56:08.217Z,21.27
2022-09-01T12:57:08.203Z,21.29
2022-09-01T12:58:08.199Z,21.31
2022-09-01T12:59:14.305Z,21.40
2022-09-01T13:00:08.174Z,21.34
2022-09-01T13:01:16.803Z,21.31
2022-09-01T13:02:08.510Z,21.46
2022-09-01T13:03:09.186Z,21.50
2022-09-01T13:04:08.217Z,21.64
2022-09-01T13:05:08.134Z,21.67
2022-09-01T13:06:08.131Z,21.83
2022-09-01T13:07:08.983Z,21.79
2022-09-01T13:08:08.105Z,21.98
2022-09-01T13:09:08.102Z,21.98
2022-09-01T13:10:08.194Z,21.91
2022-09-01T13:11:08.087Z,21.98
2022-09-01T13:12:08.299Z,21.91
2022-09-01T13:13:08.089Z,21.98
2022-09-01T13:14:08.057Z,22.06